Time;durP1;ratioP1;P1;durP2;ratioP2;P2;SDS_P1;SDS_P2;PMS_P1;PMS_P2;Temp;Humidity;BMP_temperature;BMP_pressure;BME280_temperature;BME280_humidity;BME280_pressure;Samples;Min_cycle;Max_cycle;Signal;HPM_P1;HPM_P2
2023/11/29 00:00:09;;;;;;;82.30;29.23;;;;;;;-4.03;100.00;99645.77;4891620;59;1140768;-73
2023/11/29 00:05:20;;;;;;;63.80;26.10;;;;;;;-3.88;100.00;99650.44;4910825;59;1140892;-74
2023/11/29 00:10:25;;;;;;;55.30;24.03;;;;;;;-3.78;100.00;99647.09;4893463;59;1140828;-73
2023/11/29 00:15:31;;;;;;;88.85;29.50;;;;;;;-3.75;100.00;99649.59;4854061;59;1140882;-74
2023/11/29 00:20:36;;;;;;;109.10;33.27;;;;;;;-3.72;100.00;99649.48;4837616;59;1140798;-73
2023/11/29 00:25:42;;;;;;;69.05;26.35;;;;;;;-3.67;100.00;99653.62;4818609;59;1142653;-73
2023/11/29 00:30:48;;;;;;;125.50;35.70;;;;;;;-3.64;100.00;99651.35;4818096;59;1140888;-74
2023/11/29 00:35:55;;;;;;;343.73;93.23;;;;;;;-3.61;100.00;99654.69;4818147;57;1143128;-74
2023/11/29 00:41:00;;;;;;;188.90;47.30;;;;;;;-3.53;100.00;99662.64;4837502;59;1143119;-74
2023/11/29 00:46:06;;;;;;;62.17;26.00;;;;;;;-3.47;100.00;99667.13;4901409;58;1142971;-74
2023/11/29 00:51:12;;;;;;;58.52;24.87;;;;;;;-3.38;100.00;99669.88;4966275;58;1140842;-74
2023/11/29 00:56:17;;;;;;;70.77;24.27;;;;;;;-3.26;100.00;99666.85;4979765;57;1141109;-73
2023/11/29 01:01:23;;;;;;;67.37;22.33;;;;;;;-3.24;100.00;99674.95;4941756;58;1140959;-74
2023/11/29 01:06:28;;;;;;;63.00;22.37;;;;;;;-3.21;100.00;99675.30;4872841;58;1140786;-74
2023/11/29 01:11:34;;;;;;;465.83;142.73;;;;;;;-3.22;100.00;99671.88;4882805;59;1141210;-74
2023/11/29 01:16:40;;;;;;;51.53;23.50;;;;;;;-3.21;100.00;99679.18;4866736;59;1145088;-73
2023/11/29 01:21:46;;;;;;;44.33;20.02;;;;;;;-3.22;100.00;99687.39;4867172;59;1141009;-73
2023/11/29 01:26:52;;;;;;;33.88;15.60;;;;;;;-3.22;100.00;99691.27;4879837;59;1140908;-74
2023/11/29 01:31:57;;;;;;;37.47;15.43;;;;;;;-3.23;100.00;99692.61;4737609;60;1140991;-74
2023/11/29 01:37:04;;;;;;;45.73;17.37;;;;;;;-3.25;100.00;99705.59;4708524;58;1141123;-73
2023/11/29 01:42:09;;;;;;;33.90;15.58;;;;;;;-3.24;100.00;99696.09;4719006;59;1140839;-72
2023/11/29 01:47:17;;;;;;;33.87;17.00;;;;;;;-3.21;100.00;99694.70;4738256;60;1140619;-74
2023/11/29 01:52:22;;;;;;;35.87;16.83;;;;;;;-3.15;100.00;99694.47;4679672;60;1140750;-74
2023/11/29 01:57:29;;;;;;;38.97;18.43;;;;;;;-3.10;100.00;99688.69;4776359;59;1140661;-73
2023/11/29 02:02:35;;;;;;;41.07;17.67;;;;;;;-3.03;100.00;99686.72;4784141;60;1140738;-73
2023/11/29 02:07:40;;;;;;;38.67;17.67;;;;;;;-3.04;100.00;99692.34;4766287;58;1141002;-73
2023/11/29 02:12:46;;;;;;;41.00;17.07;;;;;;;-3.08;100.00;99679.59;4711108;58;1140759;-74
2023/11/29 02:17:52;;;;;;;28.67;13.45;;;;;;;-3.11;100.00;99685.70;4703325;60;1140833;-75
2023/11/29 02:23:14;;;;;;;35.10;16.20;;;;;;;-3.19;100.00;99687.25;4736913;59;1141133;-74
2023/11/29 02:28:20;;;;;;;38.37;15.60;;;;;;;-3.28;100.00;99691.47;4721251;60;1140730;-73
2023/11/29 02:33:25;;;;;;;42.50;17.40;;;;;;;-3.32;100.00;99696.34;4762424;60;1140981;-73
2023/11/29 02:38:31;;;;;;;39.23;14.83;;;;;;;-3.34;100.00;99694.25;4835887;59;1140907;-73
2023/11/29 02:43:36;;;;;;;35.60;17.10;;;;;;;-3.30;100.00;99688.53;4870193;59;1140952;-73
2023/11/29 02:48:42;;;;;;;43.68;18.45;;;;;;;-3.28;100.00;99691.91;4870302;59;1140877;-72
2023/11/29 02:53:47;;;;;;;42.43;18.57;;;;;;;-3.25;100.00;99686.20;4889242;59;1140929;-74
2023/11/29 02:58:53;;;;;;;43.43;17.43;;;;;;;-3.23;100.00;99683.11;4868989;59;1140748;-73
2023/11/29 03:03:58;;;;;;;43.10;17.70;;;;;;;-3.23;100.00;99688.73;4869875;59;1141094;-73
2023/11/29 03:09:04;;;;;;;34.67;15.97;;;;;;;-3.28;100.00;99691.91;4826384;59;1141064;-72
2023/11/29 03:14:10;;;;;;;35.17;15.00;;;;;;;-3.28;100.00;99686.74;4864578;59;1140787;-72
2023/11/29 03:19:16;;;;;;;36.27;15.70;;;;;;;-3.29;100.00;99682.47;4865666;59;1141024;-72
2023/11/29 03:24:21;;;;;;;37.87;17.33;;;;;;;-3.31;100.00;99685.55;4884430;59;1141038;-73
2023/11/29 03:29:27;;;;;;;37.60;17.97;;;;;;;-3.41;100.00;99673.40;4865784;59;1141008;-73
2023/11/29 03:34:33;;;;;;;38.28;15.32;;;;;;;-3.43;100.00;99678.22;4878136;59;1140792;-75
2023/11/29 03:39:39;;;;;;;29.95;15.40;;;;;;;-3.49;100.00;99670.22;4884313;59;1140812;-73
2023/11/29 03:44:44;;;;;;;33.60;15.48;;;;;;;-3.53;100.00;99672.53;4867194;59;1141094;-73
2023/11/29 03:49:50;;;;;;;30.08;13.83;;;;;;;-3.61;100.00;99675.36;4870248;59;1140771;-72
2023/11/29 03:54:56;;;;;;;34.13;15.33;;;;;;;-3.73;100.00;99673.19;4868396;59;1140988;-73
2023/11/29 04:00:01;;;;;;;42.10;16.60;;;;;;;-3.80;100.00;99678.59;4888871;58;1140778;-73
2023/11/29 04:05:09;;;;;;;44.77;15.63;;;;;;;-3.87;100.00;99676.67;4862628;58;1140848;-73
2023/11/29 04:10:14;;;;;;;33.80;16.90;;;;;;;-3.92;100.00;99672.09;4790301;59;1140995;-73
2023/11/29 04:15:20;;;;;;;39.47;16.20;;;;;;;-3.99;100.00;99661.12;4865241;59;1141081;-72
2023/11/29 04:20:26;;;;;;;38.90;16.43;;;;;;;-4.05;100.00;99657.44;4848267;58;1140836;-73
2023/11/29 04:25:32;;;;;;;55.28;21.30;;;;;;;-4.08;100.00;99654.11;4844729;58;1140772;-72
2023/11/29 04:30:37;;;;;;;35.93;16.13;;;;;;;-4.11;100.00;99643.42;4886714;59;1140857;-73
2023/11/29 04:35:43;;;;;;;34.53;14.33;;;;;;;-4.10;100.00;99652.02;4888828;58;1141023;-72
2023/11/29 04:40:49;;;;;;;33.17;16.17;;;;;;;-4.09;100.00;99648.09;4854168;58;1140996;-74
2023/11/29 04:45:54;;;;;;;38.13;18.17;;;;;;;-4.09;100.00;99645.52;4868615;58;1141183;-75
2023/11/29 04:51:00;;;;;;;37.00;15.93;;;;;;;-4.10;100.00;99631.36;4881146;58;1140981;-75
2023/11/29 04:56:06;;;;;;;52.87;21.07;;;;;;;-4.07;100.00;99629.53;4850194;59;1141345;-74
2023/11/29 05:01:12;;;;;;;44.70;19.27;;;;;;;-4.06;100.00;99624.77;4851410;57;1140993;-76
2023/11/29 05:06:19;;;;;;;48.20;21.23;;;;;;;-4.02;100.00;99629.39;4868054;59;1140815;-74
2023/11/29 05:11:25;;;;;;;41.33;20.23;;;;;;;-4.00;100.00;99619.86;4903817;58;1140818;-74
2023/11/29 05:16:31;;;;;;;38.17;17.83;;;;;;;-4.00;100.00;99612.95;4973537;58;1140703;-75
2023/11/29 05:21:36;;;;;;;33.20;15.23;;;;;;;-3.99;100.00;99613.80;4993347;57;1140830;-74
2023/11/29 05:26:42;;;;;;;52.03;20.83;;;;;;;-4.04;100.00;99620.40;4939446;58;1141102;-75
2023/11/29 05:31:48;;;;;;;60.27;22.00;;;;;;;-4.07;100.00;99622.23;4877444;59;1141173;-74
2023/11/29 05:36:53;;;;;;;44.65;18.42;;;;;;;-4.08;100.00;99633.00;4877572;59;1141186;-75
2023/11/29 05:41:59;;;;;;;46.07;20.10;;;;;;;-4.09;100.00;99630.47;4818833;60;1141133;-73
2023/11/29 05:47:05;;;;;;;43.77;18.60;;;;;;;-4.10;100.00;99630.91;4879327;59;1140723;-74
2023/11/29 05:52:10;;;;;;;41.97;18.67;;;;;;;-4.09;100.00;99630.02;4880618;59;1140880;-73
2023/11/29 05:57:16;;;;;;;41.40;17.23;;;;;;;-4.09;100.00;99627.89;4900814;58;1140847;-73
2023/11/29 06:02:21;;;;;;;46.43;18.53;;;;;;;-4.10;100.00;99633.49;4881662;59;1140868;-74
2023/11/29 06:07:27;;;;;;;46.27;20.03;;;;;;;-4.09;100.00;99633.05;4887257;59;1140873;-73
2023/11/29 06:12:36;;;;;;;54.20;21.03;;;;;;;-4.06;100.00;99629.08;4912923;59;1140776;-73
2023/11/29 06:17:42;;;;;;;42.27;17.57;;;;;;;-4.00;100.00;99626.31;4894963;59;1147247;-73
2023/11/29 06:22:47;;;;;;;44.03;18.07;;;;;;;-3.96;100.00;99622.72;4893730;59;1140897;-73
2023/11/29 06:27:53;;;;;;;53.98;21.33;;;;;;;-3.96;100.00;99621.42;4890921;59;1140909;-75
2023/11/29 06:32:59;;;;;;;58.30;25.53;;;;;;;-3.95;100.00;99618.80;4908018;59;1141002;-73
2023/11/29 06:38:05;;;;;;;59.43;24.20;;;;;;;-3.95;100.00;99622.66;4889510;59;1140863;-72
2023/11/29 06:43:10;;;;;;;55.47;24.87;;;;;;;-3.90;100.00;99636.73;4887630;59;1140927;-73
2023/11/29 06:48:18;;;;;;;49.80;22.30;;;;;;;-3.85;100.00;99635.30;4858969;59;1140919;-73
2023/11/29 06:53:24;;;;;;;52.50;22.07;;;;;;;-3.81;100.00;99632.53;4894555;57;1140938;-72
2023/11/29 06:58:29;;;;;;;54.07;23.83;;;;;;;-3.80;100.00;99630.35;4894816;57;1140890;-72
2023/11/29 07:03:35;;;;;;;38.88;17.17;;;;;;;-3.75;100.00;99634.93;4913063;56;1140767;-73
2023/11/29 07:08:41;;;;;;;57.67;24.27;;;;;;;-3.73;100.00;99637.46;4888781;58;1140896;-74
2023/11/29 07:13:47;;;;;;;54.57;24.50;;;;;;;-3.73;100.00;99642.19;4879692;59;1140941;-74
2023/11/29 07:18:54;;;;;;;59.22;24.00;;;;;;;-3.69;100.00;99645.07;4897307;59;1141130;-75
2023/11/29 07:23:59;;;;;;;181.33;81.47;;;;;;;-3.63;100.00;99655.18;4899708;59;1140966;-73
2023/11/29 07:29:05;;;;;;;82.37;33.23;;;;;;;-3.58;100.00;99663.63;4880965;58;1143134;-73
2023/11/29 07:34:10;;;;;;;113.50;42.10;;;;;;;-3.52;100.00;99665.63;4881433;59;1140992;-73
2023/11/29 07:39:16;;;;;;;63.90;25.53;;;;;;;-3.46;100.00;99661.07;4899045;59;1142901;-74
2023/11/29 07:44:23;;;;;;;79.23;30.83;;;;;;;-3.37;100.00;99667.69;4879311;59;1140934;-74
2023/11/29 07:49:29;;;;;;;69.80;28.03;;;;;;;-3.34;100.00;99673.56;4879413;59;1140680;-73
2023/11/29 07:54:34;;;;;;;46.93;19.93;;;;;;;-3.14;100.00;99674.17;4898390;59;1140650;-74
2023/11/29 07:59:40;;;;;;;35.20;15.63;;;;;;;-3.08;100.00;99671.38;4857665;59;1260006;-74
2023/11/29 08:04:45;;;;;;;40.70;18.57;;;;;;;-2.97;100.00;99660.64;4875913;59;1140819;-74
2023/11/29 08:09:51;;;;;;;31.93;14.67;;;;;;;-2.84;100.00;99663.17;4895506;59;1140942;-75
2023/11/29 08:14:56;;;;;;;43.70;17.53;;;;;;;-2.85;100.00;99666.66;4860105;59;1140828;-75
2023/11/29 08:20:02;;;;;;;39.20;16.42;;;;;;;-2.86;100.00;99670.98;4864761;59;1140654;-74
2023/11/29 08:25:08;;;;;;;31.03;15.33;;;;;;;-2.86;100.00;99674.02;4889243;59;1140787;-73
2023/11/29 08:30:14;;;;;;;32.90;15.37;;;;;;;-2.91;100.00;99669.03;4761330;59;1140693;-75
2023/11/29 08:35:20;;;;;;;27.27;14.97;;;;;;;-2.94;100.00;99667.84;4744668;59;1140576;-73
2023/11/29 08:40:25;;;;;;;27.90;12.13;;;;;;;-2.90;100.00;99665.52;4770671;59;1140653;-74
2023/11/29 08:45:31;;;;;;;32.33;16.43;;;;;;;-2.86;100.00;99663.67;4764729;59;1140854;-74
2023/11/29 08:50:37;;;;;;;35.40;15.70;;;;;;;-2.79;100.00;99666.44;4783167;59;1140902;-74
2023/11/29 08:55:44;;;;;;;41.40;17.77;;;;;;;-2.74;100.00;99674.86;4853716;58;1140843;-75
2023/11/29 09:00:50;;;;;;;35.20;16.90;;;;;;;-2.75;100.00;99659.42;4892229;58;1141162;-73
2023/11/29 09:05:55;;;;;;;49.83;25.68;;;;;;;-2.70;100.00;99660.91;4885220;57;1140934;-74
2023/11/29 09:11:02;;;;;;;44.40;19.53;;;;;;;-2.58;100.00;99668.21;4812484;59;1141046;-74
2023/11/29 09:16:08;;;;;;;78.63;33.23;;;;;;;-2.48;100.00;99666.14;4937569;58;1140797;-73
2023/11/29 09:21:14;;;;;;;38.47;16.87;;;;;;;-2.42;100.00;99663.75;4921731;58;1140733;-73
2023/11/29 09:26:19;;;;;;;50.13;19.10;;;;;;;-2.31;100.00;99648.66;4895217;59;1140562;-73
2023/11/29 09:31:27;;;;;;;80.10;28.60;;;;;;;-2.17;100.00;99639.89;4914263;59;1140769;-75
2023/11/29 09:36:32;;;;;;;53.83;20.15;;;;;;;-2.05;100.00;99634.67;4895801;58;1140570;-74
2023/11/29 09:41:38;;;;;;;59.40;20.13;;;;;;;-2.03;100.00;99627.68;4894911;58;1140745;-72
2023/11/29 09:46:45;;;;;;;43.93;15.67;;;;;;;-2.06;100.00;99631.23;4915693;58;1146849;-74
2023/11/29 09:51:50;;;;;;;62.13;20.33;;;;;;;-2.04;100.00;99628.13;4909038;57;1140962;-75
2023/11/29 09:56:56;;;;;;;48.87;18.90;;;;;;;-2.08;100.00;99626.56;4748338;59;1140913;-73
2023/11/29 10:02:06;;;;;;;46.77;15.87;;;;;;;-2.11;100.00;99633.16;4861460;57;1140902;-74
2023/11/29 10:07:11;;;;;;;56.73;26.15;;;;;;;-2.09;100.00;99635.69;4855246;58;1140791;-74
2023/11/29 10:12:17;;;;;;;54.87;23.30;;;;;;;-2.04;100.00;99632.02;4789956;59;1140888;-75
2023/11/29 10:17:24;;;;;;;37.17;14.37;;;;;;;-2.03;100.00;99628.98;4863671;57;1140839;-75
2023/11/29 10:22:30;;;;;;;22.10;12.23;;;;;;;-1.96;100.00;99628.65;4973432;55;1141122;-75
2023/11/29 10:27:36;;;;;;;30.37;14.67;;;;;;;-1.84;100.00;99627.33;4920293;57;1140648;-75
2023/11/29 10:32:50;;;;;;;24.90;12.60;;;;;;;-1.85;100.00;99622.59;4887396;57;1140900;-74
2023/11/29 10:38:15;;;;;;;33.97;18.50;;;;;;;-1.79;100.00;99626.21;4927194;58;1140731;-74
2023/11/29 10:43:27;;;;;;;32.60;13.67;;;;;;;-1.75;100.00;99611.83;4917902;58;1140676;-74
2023/11/29 10:48:36;;;;;;;40.07;14.87;;;;;;;-1.68;100.00;99610.20;4915511;58;1140855;-74
2023/11/29 10:53:42;;;;;;;64.13;26.53;;;;;;;-1.60;100.00;99608.59;4925642;58;1140856;-75
2023/11/29 10:59:00;;;;;;;69.40;23.37;;;;;;;-1.53;100.00;99597.87;4907951;57;1140914;-74
2023/11/29 11:04:12;;;;;;;100.03;33.77;;;;;;;-1.45;100.00;99590.63;4885616;57;1141049;-74
2023/11/29 11:09:34;;;;;;;60.33;18.87;;;;;;;-1.43;100.00;99579.74;4843299;56;1142895;-74
2023/11/29 11:14:52;;;;;;;63.30;22.00;;;;;;;-1.32;100.00;99575.83;4825704;57;1140841;-74
2023/11/29 11:20:02;;;;;;;60.08;22.07;;;;;;;-1.20;100.00;99577.41;4778647;58;1141133;-73
2023/11/29 11:25:16;;;;;;;61.60;20.20;;;;;;;-1.11;100.00;99570.98;4775518;58;1140949;-74
2023/11/29 11:30:25;;;;;;;63.63;20.03;;;;;;;-0.96;100.00;99565.55;4802877;58;1140667;-74
2023/11/29 11:35:36;;;;;;;49.20;16.93;;;;;;;-0.72;100.00;99554.02;4787096;59;1140999;-74
2023/11/29 11:40:43;;;;;;;46.60;16.73;;;;;;;-0.60;100.00;99548.25;4929662;57;1140966;-75
2023/11/29 11:45:48;;;;;;;23.80;10.43;;;;;;;-0.54;100.00;99547.97;4918035;57;1140837;-73
2023/11/29 11:50:55;;;;;;;41.45;13.90;;;;;;;-0.53;100.00;99541.02;4870488;58;1140919;-74
2023/11/29 11:56:01;;;;;;;25.33;12.07;;;;;;;-0.62;100.00;99546.66;4854420;58;1140743;-72
2023/11/29 12:01:07;;;;;;;27.02;11.57;;;;;;;-0.70;100.00;99539.22;4849240;57;1141046;-73
2023/11/29 12:06:14;;;;;;;37.70;17.60;;;;;;;-0.77;100.00;99546.47;4879095;58;1140900;-73
2023/11/29 12:11:20;;;;;;;43.00;16.48;;;;;;;-0.78;100.00;99537.00;4806156;59;1140963;-73
2023/11/29 12:16:26;;;;;;;26.77;12.30;;;;;;;-0.82;100.00;99532.86;4809206;58;1141123;-73
2023/11/29 12:21:32;;;;;;;28.23;12.33;;;;;;;-0.82;100.00;99524.23;4889802;58;1140922;-72
2023/11/29 12:26:38;;;;;;;33.77;15.70;;;;;;;-0.83;100.00;99516.90;4872901;58;1141073;-73
2023/11/29 12:31:44;;;;;;;46.67;19.00;;;;;;;-0.85;100.00;99516.13;4893816;58;1140862;-74
2023/11/29 12:36:50;;;;;;;40.83;17.10;;;;;;;-0.88;100.00;99513.66;4913979;58;1140942;-74
2023/11/29 12:41:57;;;;;;;42.50;19.95;;;;;;;-0.92;100.00;99516.50;4877796;57;1141040;-74
2023/11/29 12:47:06;;;;;;;45.07;17.30;;;;;;;-0.94;100.00;99516.56;4830568;59;1141023;-74
2023/11/29 12:52:11;;;;;;;41.00;18.05;;;;;;;-0.98;100.00;99512.42;4829367;58;1141025;-73
2023/11/29 12:57:17;;;;;;;45.43;21.07;;;;;;;-0.96;100.00;99506.71;4854560;58;1140683;-73
2023/11/29 13:02:23;;;;;;;46.93;17.77;;;;;;;-0.97;100.00;99501.59;4814279;60;1140683;-74
2023/11/29 13:07:28;;;;;;;41.50;17.35;;;;;;;-0.98;100.00;99499.91;4867349;58;1140842;-74
2023/11/29 13:12:34;;;;;;;43.30;18.67;;;;;;;-0.96;100.00;99494.19;4972138;58;1141093;-74
2023/11/29 13:17:39;;;;;;;111.90;38.30;;;;;;;-0.93;100.00;99496.19;4900271;58;1140786;-74
2023/11/29 13:22:45;;;;;;;39.60;17.77;;;;;;;-0.88;100.00;99494.66;4893606;57;1143229;-73
2023/11/29 13:27:50;;;;;;;42.67;19.17;;;;;;;-0.86;100.00;99505.81;4914319;58;1140789;-74
2023/11/29 13:32:56;;;;;;;42.10;20.90;;;;;;;-0.87;100.00;99499.77;4904407;58;1140777;-74
2023/11/29 13:38:02;;;;;;;44.87;18.87;;;;;;;-0.86;100.00;99494.13;4919640;58;1141059;-73
2023/11/29 13:43:08;;;;;;;39.73;19.03;;;;;;;-0.85;100.00;99492.77;4983084;58;1140865;-73
2023/11/29 13:48:13;;;;;;;49.50;21.17;;;;;;;-0.83;100.00;99505.22;4890442;59;1140618;-73
2023/11/29 13:53:19;;;;;;;50.23;21.37;;;;;;;-0.86;100.00;99492.83;4890645;59;1140777;-73
2023/11/29 13:58:25;;;;;;;48.30;19.03;;;;;;;-0.92;100.00;99495.28;4909759;59;1140720;-74
2023/11/29 14:03:30;;;;;;;65.40;27.67;;;;;;;-0.95;100.00;99501.91;4889378;59;1141041;-73
2023/11/29 14:08:39;;;;;;;97.73;32.17;;;;;;;-0.98;100.00;99495.55;4925835;58;1141140;-73
2023/11/29 14:13:43;;;;;;;62.83;24.60;;;;;;;-1.03;100.00;99496.22;4946536;58;1141076;-74
2023/11/29 14:18:48;;;;;;;31.93;13.73;;;;;;;-1.08;100.00;99503.39;4894233;58;1140865;-72
2023/11/29 14:23:54;;;;;;;36.50;15.17;;;;;;;-1.15;100.00;99508.47;4902218;58;1141221;-73
2023/11/29 14:29:01;;;;;;;47.65;22.27;;;;;;;-1.23;100.00;99504.94;4891174;58;1141202;-72
2023/11/29 14:34:06;;;;;;;44.03;18.40;;;;;;;-1.22;100.00;99504.48;4916406;58;1141141;-74
2023/11/29 14:39:15;;;;;;;61.60;25.37;;;;;;;-1.22;100.00;99498.81;4887180;57;1140966;-73
2023/11/29 14:44:21;;;;;;;48.20;19.87;;;;;;;-1.19;100.00;99506.46;4880915;59;1141055;-74
2023/11/29 14:49:26;;;;;;;41.80;16.63;;;;;;;-1.17;100.00;99507.23;4913405;58;1141034;-74
2023/11/29 14:54:32;;;;;;;45.77;19.10;;;;;;;-1.17;100.00;99503.80;4894586;58;1140797;-73
2023/11/29 14:59:38;;;;;;;49.37;20.67;;;;;;;-1.19;100.00;99507.76;4894762;59;1141069;-74
2023/11/29 15:04:43;;;;;;;64.87;24.27;;;;;;;-1.21;100.00;99506.98;4913850;59;1140887;-73
2023/11/29 15:09:49;;;;;;;55.53;24.87;;;;;;;-1.22;100.00;99503.19;4894002;59;1140921;-74
2023/11/29 15:14:54;;;;;;;66.92;27.25;;;;;;;-1.21;100.00;99500.50;4863958;58;1140841;-74
2023/11/29 15:20:00;;;;;;;53.26;22.38;;;;;;;-1.19;100.00;99505.16;4852772;58;1140768;-73
2023/11/29 15:25:06;;;;;;;39.90;18.70;;;;;;;-1.17;100.00;99518.06;4835734;60;1140921;-74
2023/11/29 15:30:13;;;;;;;42.43;18.97;;;;;;;-1.20;100.00;99519.05;4816697;60;1140874;-74
2023/11/29 15:35:19;;;;;;;60.97;23.53;;;;;;;-1.26;100.00;99518.50;4816661;60;1140786;-73
2023/11/29 15:40:25;;;;;;;89.97;40.07;;;;;;;-1.29;100.00;99514.28;4835724;60;1140928;-74
2023/11/29 15:45:30;;;;;;;56.37;26.77;;;;;;;-1.27;100.00;99522.00;4853607;59;1140713;-73
2023/11/29 15:50:36;;;;;;;69.03;27.00;;;;;;;-1.25;100.00;99513.25;4889471;59;1140806;-72
2023/11/29 15:55:43;;;;;;;53.10;23.67;;;;;;;-1.25;100.00;99513.25;4908693;59;1140699;-74
2023/11/29 16:00:49;;;;;;;51.97;24.17;;;;;;;-1.26;100.00;99514.61;4889632;59;1140812;-74
2023/11/29 16:05:58;;;;;;;133.27;47.13;;;;;;;-1.28;100.00;99509.94;4892080;59;1140901;-74
2023/11/29 16:11:01;;;;;;;64.37;24.65;;;;;;;-1.28;100.00;99501.70;4807033;59;1142796;-74
2023/11/29 16:16:07;;;;;;;51.70;23.13;;;;;;;-1.30;100.00;99506.58;4889776;59;1140743;-74
2023/11/29 16:21:14;;;;;;;57.20;22.87;;;;;;;-1.31;100.00;99501.84;4875034;58;1140785;-74
2023/11/29 16:26:19;;;;;;;94.05;36.95;;;;;;;-1.35;100.00;99502.88;4875927;58;1140998;-73
2023/11/29 16:31:25;;;;;;;55.17;22.33;;;;;;;-1.33;100.00;99500.22;4894971;58;1141035;-75
2023/11/29 16:36:30;;;;;;;93.40;32.83;;;;;;;-1.29;100.00;99506.50;4837434;59;1140732;-76
2023/11/29 16:41:36;;;;;;;87.30;33.87;;;;;;;-1.26;100.00;99508.97;4819086;58;1140790;-76
2023/11/29 16:46:42;;;;;;;70.87;28.50;;;;;;;-1.25;100.00;99502.02;4891338;59;1140632;-76
2023/11/29 16:51:48;;;;;;;79.12;27.93;;;;;;;-1.26;100.00;99504.23;4895622;58;1140750;-77
2023/11/29 16:56:53;;;;;;;116.03;40.10;;;;;;;-1.26;100.00;99504.23;4890128;59;1140850;-76
2023/11/29 17:01:59;;;;;;;55.56;24.68;;;;;;;-1.29;100.00;99490.09;4892139;59;1143034;-76
2023/11/29 17:07:04;;;;;;;93.93;34.63;;;;;;;-1.25;100.00;99495.09;4961437;58;1141040;-74
2023/11/29 17:12:11;;;;;;;68.60;28.20;;;;;;;-1.26;100.00;99487.38;4898179;58;1141062;-76
2023/11/29 17:17:19;;;;;;;88.97;33.93;;;;;;;-1.27;100.00;99494.77;4935359;58;1140958;-76
2023/11/29 17:22:29;;;;;;;117.43;43.33;;;;;;;-1.31;100.00;99491.46;4945620;58;1141099;-75
2023/11/29 17:27:34;;;;;;;64.10;24.93;;;;;;;-1.29;100.00;99478.43;4933570;58;1143001;-75
2023/11/29 17:32:40;;;;;;;120.17;46.33;;;;;;;-1.26;100.00;99480.89;4914893;58;1140844;-75
2023/11/29 17:37:45;;;;;;;52.13;22.77;;;;;;;-1.22;100.00;99485.03;4891485;58;1143231;-76
2023/11/29 17:42:53;;;;;;;72.20;29.03;;;;;;;-1.23;100.00;99485.48;4875413;58;1141025;-75
2023/11/29 17:47:58;;;;;;;69.58;28.40;;;;;;;-1.21;100.00;99482.80;4883878;58;1140588;-75
2023/11/29 17:53:06;;;;;;;73.57;28.47;;;;;;;-1.23;100.00;99477.70;4883950;58;1140954;-75
2023/11/29 17:58:12;;;;;;;57.30;25.30;;;;;;;-1.22;100.00;99474.66;4890120;58;1140854;-78
2023/11/29 18:03:19;;;;;;;58.65;21.75;;;;;;;-1.24;100.00;99473.88;4869648;59;1140694;-76
2023/11/29 18:08:25;;;;;;;75.20;28.75;;;;;;;-1.25;100.00;99480.82;4882197;59;1140772;-69
2023/11/29 18:13:30;;;;;;;98.63;36.00;;;;;;;-1.22;100.00;99478.55;4902811;58;1140939;-76
2023/11/29 18:18:38;;;;;;;93.40;32.73;;;;;;;-1.22;100.00;99482.44;4882836;59;1140999;-77
2023/11/29 18:23:43;;;;;;;91.87;32.97;;;;;;;-1.21;100.00;99473.26;4919119;58;1140718;-76
2023/11/29 18:28:53;;;;;;;47.70;21.70;;;;;;;-1.20;100.00;99469.76;5001033;58;1141052;-77
2023/11/29 18:34:00;;;;;;;62.05;25.15;;;;;;;-1.20;100.00;99469.76;4961930;58;1141270;-76
2023/11/29 18:39:07;;;;;;;53.60;22.23;;;;;;;-1.18;100.00;99471.83;4962904;58;1141056;-75
2023/11/29 18:44:13;;;;;;;54.23;21.33;;;;;;;-1.18;100.00;99465.34;4903123;58;1140788;-75
2023/11/29 18:49:20;;;;;;;49.30;17.97;;;;;;;-1.21;100.00;99460.29;4882037;59;1140804;-76
2023/11/29 18:54:26;;;;;;;76.43;30.20;;;;;;;-1.20;100.00;99463.27;4883370;59;1140976;-75
2023/11/29 18:59:31;;;;;;;69.70;28.67;;;;;;;-1.19;100.00;99452.44;4890419;59;1140870;-77
2023/11/29 19:04:38;;;;;;;107.43;42.93;;;;;;;-1.16;100.00;99443.22;4878758;59;1140997;-76
2023/11/29 19:09:43;;;;;;;65.30;25.67;;;;;;;-1.18;100.00;99442.45;4861253;58;1142828;-75
2023/11/29 19:14:51;;;;;;;57.83;27.98;;;;;;;-1.20;100.00;99435.19;4995652;58;1140949;-77
2023/11/29 19:19:57;;;;;;;79.20;28.52;;;;;;;-1.21;100.00;99437.40;4962395;58;1140967;-74
2023/11/29 19:25:04;;;;;;;49.42;20.50;;;;;;;-1.20;100.00;99445.11;4961776;58;1140794;-75
2023/11/29 19:30:11;;;;;;;73.43;27.10;;;;;;;-1.23;100.00;99436.66;4981678;58;1141300;-75
2023/11/29 19:35:16;;;;;;;61.00;22.10;;;;;;;-1.26;100.00;99431.15;4900258;58;1140833;-73
2023/11/29 19:40:22;;;;;;;74.03;29.83;;;;;;;-1.23;100.00;99432.77;4950915;58;1252490;-77
2023/11/29 19:45:28;;;;;;;60.20;24.80;;;;;;;-1.22;100.00;99441.74;4904579;58;1141282;-76
2023/11/29 19:50:33;;;;;;;63.80;23.37;;;;;;;-1.20;100.00;99436.48;4941241;58;1140795;-75
2023/11/29 19:55:39;;;;;;;93.67;31.40;;;;;;;-1.20;100.00;99444.27;4929411;58;1140956;-75
2023/11/29 20:00:44;;;;;;;62.10;23.43;;;;;;;-1.22;100.00;99445.64;4909325;58;1141058;-75
2023/11/29 20:05:50;;;;;;;62.10;21.90;;;;;;;-1.25;100.00;99441.91;4893485;57;1141023;-76
2023/11/29 20:11:00;;;;;;;67.90;25.33;;;;;;;-1.23;100.00;99443.14;4892615;59;1140848;-76
2023/11/29 20:16:06;;;;;;;70.87;27.27;;;;;;;-1.26;100.00;99443.28;4892290;59;1141059;-76
2023/11/29 20:21:12;;;;;;;71.50;27.00;;;;;;;-1.25;100.00;99435.42;4911137;59;1140715;-77
2023/11/29 20:26:17;;;;;;;74.83;29.03;;;;;;;-1.23;100.00;99444.44;4892261;59;1140954;-75
2023/11/29 20:31:23;;;;;;;67.40;24.60;;;;;;;-1.24;100.00;99441.00;4834662;58;1140850;-74
2023/11/29 20:36:28;;;;;;;58.53;21.57;;;;;;;-1.22;100.00;99446.13;4911786;58;1140791;-75
2023/11/29 20:41:34;;;;;;;87.40;35.37;;;;;;;-1.23;100.00;99448.33;4862948;59;1141130;-76
2023/11/29 20:46:40;;;;;;;83.83;30.10;;;;;;;-1.23;100.00;99447.03;4890409;59;1140766;-76
2023/11/29 20:51:47;;;;;;;88.20;32.47;;;;;;;-1.22;100.00;99445.64;4930236;58;1140881;-78
2023/11/29 20:56:52;;;;;;;47.37;20.00;;;;;;;-1.21;100.00;99440.83;4935228;58;1140939;-76
2023/11/29 21:01:58;;;;;;;52.45;22.45;;;;;;;-1.25;100.00;99427.64;4918567;58;1141023;-75
2023/11/29 21:07:03;;;;;;;63.38;25.45;;;;;;;-1.30;100.00;99433.95;4875595;58;1140902;-75
2023/11/29 21:12:09;;;;;;;58.13;23.05;;;;;;;-1.36;100.00;99420.80;4912238;59;1140830;-74
2023/11/29 21:17:15;;;;;;;55.85;24.80;;;;;;;-1.39;100.00;99415.78;4893998;58;1140899;-75
2023/11/29 21:22:21;;;;;;;43.50;18.75;;;;;;;-1.39;100.00;99409.75;4894485;58;1141157;-74
2023/11/29 21:27:26;;;;;;;55.17;19.65;;;;;;;-1.42;100.00;99406.38;4889532;58;1140913;-74
2023/11/29 21:32:32;;;;;;;40.33;17.82;;;;;;;-1.44;100.00;99407.36;4881500;58;1140999;-74
2023/11/29 21:37:37;;;;;;;58.77;22.60;;;;;;;-1.47;100.00;99403.16;4893923;58;1140951;-75
2023/11/29 21:42:43;;;;;;;34.00;14.70;;;;;;;-1.48;100.00;99396.74;4894601;59;1141094;-75
2023/11/29 21:47:49;;;;;;;58.63;22.80;;;;;;;-1.48;100.00;99401.92;4825410;58;1141280;-75
2023/11/29 21:52:55;;;;;;;43.27;17.80;;;;;;;-1.51;100.00;99405.50;4857347;58;1140938;-75
2023/11/29 21:58:01;;;;;;;40.43;17.13;;;;;;;-1.50;100.00;99394.22;4849995;58;1140909;-75
2023/11/29 22:03:07;;;;;;;39.60;16.13;;;;;;;-1.53;100.00;99393.54;4953031;58;1140861;-74
2023/11/29 22:08:12;;;;;;;45.53;20.20;;;;;;;-1.55;100.00;99389.72;4898355;58;1140932;-74
2023/11/29 22:13:18;;;;;;;34.17;14.77;;;;;;;-1.56;100.00;99383.31;4891591;59;1141025;-74
2023/11/29 22:18:23;;;;;;;72.60;30.40;;;;;;;-1.56;100.00;99379.42;4907641;59;1140936;-74
2023/11/29 22:23:29;;;;;;;47.47;23.03;;;;;;;-1.53;100.00;99375.39;4892611;59;1141028;-74
2023/11/29 22:28:34;;;;;;;48.50;22.63;;;;;;;-1.53;100.00;99371.02;4824631;59;1140997;-74
2023/11/29 22:33:40;;;;;;;67.70;29.30;;;;;;;-1.55;100.00;99374.62;4912182;58;1141008;-74
2023/11/29 22:38:46;;;;;;;51.73;23.03;;;;;;;-1.57;100.00;99359.13;4893264;58;1141095;-74